Time;durP1;ratioP1;P1;durP2;ratioP2;P2;SDS_P1;SDS_P2;PMS_P1;PMS_P2;Temp;Humidity;BMP_temperature;BMP_pressure;BME280_temperature;BME280_humidity;BME280_pressure;Samples;Min_cycle;Max_cycle;Signal;HPM_P1;HPM_P2
2023/11/11 00:01:55;;;;;;;11.30;2.10;;;9.80;99.90;;;;;;7279052;19;20546;-78
2023/11/11 00:04:22;;;;;;;12.37;2.73;;;9.70;99.90;;;;;;7281654;19;20193;-78
2023/11/11 00:06:48;;;;;;;10.37;2.30;;;9.70;99.90;;;;;;7302052;19;20543;-78
2023/11/11 00:09:18;;;;;;;12.20;2.53;;;9.60;99.90;;;;;;7280693;19;20202;-78
2023/11/11 00:11:44;;;;;;;9.37;2.60;;;9.60;99.90;;;;;;7281900;19;20202;-78
2023/11/11 00:14:11;;;;;;;8.37;2.73;;;9.70;99.90;;;;;;7279554;19;20223;-78
2023/11/11 00:16:37;;;;;;;12.03;2.63;;;9.80;99.90;;;;;;7279443;19;20194;-78
2023/11/11 00:19:03;;;;;;;11.10;2.70;;;9.80;99.90;;;;;;7281828;19;20205;-78
2023/11/11 00:21:28;;;;;;;8.13;2.57;;;9.90;99.90;;;;;;7277396;19;20306;-78
2023/11/11 00:23:58;;;;;;;10.83;2.70;;;9.90;99.90;;;;;;7279883;19;20217;-78
2023/11/11 00:26:24;;;;;;;11.70;2.70;;;10.00;99.90;;;;;;7280589;19;20190;-78
2023/11/11 00:28:51;;;;;;;11.57;3.13;;;9.90;99.90;;;;;;7279685;19;20197;-78
2023/11/11 00:31:17;;;;;;;9.87;3.13;;;10.00;99.90;;;;;;7302119;19;20182;-78
2023/11/11 00:33:44;;;;;;;11.03;3.60;;;10.00;99.90;;;;;;7279388;19;20195;-78
2023/11/11 00:36:10;;;;;;;10.13;2.93;;;9.90;99.90;;;;;;7279284;19;20562;-79
2023/11/11 00:38:36;;;;;;;13.90;3.17;;;9.90;99.90;;;;;;7280375;19;20270;-78
2023/11/11 00:41:04;;;;;;;12.27;3.23;;;9.80;99.90;;;;;;7278147;19;20182;-78
2023/11/11 00:43:30;;;;;;;8.90;3.40;;;9.60;99.90;;;;;;7281656;19;20650;-78
2023/11/11 00:45:56;;;;;;;15.70;3.80;;;9.50;99.90;;;;;;7282568;19;20249;-78
2023/11/11 00:48:24;;;;;;;11.83;4.23;;;9.50;99.90;;;;;;7285033;19;20210;-78
2023/11/11 00:50:50;;;;;;;11.93;3.80;;;9.50;99.90;;;;;;7285153;19;20190;-78
2023/11/11 00:53:16;;;;;;;12.20;4.00;;;9.40;99.90;;;;;;7303894;19;20196;-78
2023/11/11 00:55:42;;;;;;;13.77;5.03;;;9.30;99.90;;;;;;7285739;19;20273;-78
2023/11/11 00:58:08;;;;;;;15.27;5.37;;;9.20;99.90;;;;;;7281321;19;20283;-78
2023/11/11 01:00:34;;;;;;;15.43;5.60;;;9.10;99.90;;;;;;7279008;19;20191;-78
2023/11/11 01:03:00;;;;;;;13.90;5.13;;;9.10;99.90;;;;;;7278470;19;20657;-78
2023/11/11 01:05:26;;;;;;;12.53;5.47;;;9.00;99.90;;;;;;7278483;19;20181;-78
2023/11/11 01:07:53;;;;;;;18.37;6.23;;;8.90;99.90;;;;;;7279395;19;20194;-78
2023/11/11 01:10:22;;;;;;;18.77;6.43;;;8.80;99.90;;;;;;7290843;19;20204;-78
2023/11/11 01:12:48;;;;;;;15.97;5.97;;;8.90;99.90;;;;;;7299526;19;20208;-77
2023/11/11 01:15:14;;;;;;;16.73;6.80;;;8.90;99.90;;;;;;7295093;19;20671;-78
2023/11/11 01:17:40;;;;;;;22.20;7.00;;;8.90;99.90;;;;;;7285623;19;20308;-78
2023/11/11 01:20:07;;;;;;;21.70;7.30;;;8.90;99.90;;;;;;7284003;19;20199;-78
2023/11/11 01:22:33;;;;;;;18.63;6.67;;;8.80;99.90;;;;;;7281971;19;20297;-78
2023/11/11 01:24:59;;;;;;;17.97;6.43;;;8.80;99.90;;;;;;7282302;19;20252;-78
2023/11/11 01:27:26;;;;;;;22.87;8.20;;;8.70;99.90;;;;;;7282783;19;20687;-78
2023/11/11 01:29:52;;;;;;;23.20;7.20;;;8.60;99.90;;;;;;7282448;19;20188;-78
2023/11/11 01:32:19;;;;;;;18.13;7.10;;;8.60;99.90;;;;;;7302587;19;20200;-78
2023/11/11 01:34:44;;;;;;;18.37;7.80;;;8.70;99.90;;;;;;7295437;19;20181;-78
2023/11/11 01:37:10;;;;;;;16.77;7.47;;;8.60;99.90;;;;;;7282567;19;20192;-78
2023/11/11 01:39:36;;;;;;;21.37;7.70;;;8.60;99.90;;;;;;7280264;19;20203;-78
2023/11/11 01:42:02;;;;;;;18.93;8.10;;;8.50;99.90;;;;;;7283080;19;20184;-78
2023/11/11 01:44:29;;;;;;;16.60;7.93;;;8.40;99.90;;;;;;7283974;19;20188;-78
2023/11/11 01:46:55;;;;;;;17.60;8.97;;;8.50;99.90;;;;;;7281078;19;20204;-78
2023/11/11 01:49:22;;;;;;;18.10;8.10;;;8.50;99.90;;;;;;7283423;19;20702;-78
2023/11/11 01:51:49;;;;;;;22.97;8.80;;;8.60;99.90;;;;;;7304334;19;20644;-78
2023/11/11 01:54:18;;;;;;;20.93;8.50;;;8.60;99.90;;;;;;7282270;19;20189;-78
2023/11/11 01:56:44;;;;;;;20.23;8.80;;;8.60;99.90;;;;;;7282378;19;20762;-78
2023/11/11 01:59:11;;;;;;;21.43;9.17;;;8.50;99.90;;;;;;7282103;19;20175;-78
2023/11/11 02:01:37;;;;;;;24.83;9.37;;;8.50;99.90;;;;;;7281754;19;20189;-79
2023/11/11 02:04:03;;;;;;;22.33;9.90;;;8.50;99.90;;;;;;7282561;19;20790;-78
2023/11/11 02:06:29;;;;;;;21.00;9.70;;;8.50;99.90;;;;;;7281778;19;20205;-78
2023/11/11 02:08:55;;;;;;;19.13;10.83;;;8.50;99.90;;;;;;7282726;19;20552;-78
2023/11/11 02:11:21;;;;;;;22.17;10.87;;;8.40;99.90;;;;;;7281018;19;20185;-78
2023/11/11 02:13:47;;;;;;;22.17;11.47;;;8.40;99.90;;;;;;7303453;19;20189;-78
2023/11/11 02:16:14;;;;;;;24.70;12.20;;;8.40;99.90;;;;;;7281771;19;20184;-78
2023/11/11 02:18:40;;;;;;;29.67;13.40;;;8.30;99.90;;;;;;7282087;19;20634;-78
2023/11/11 02:21:06;;;;;;;27.30;13.37;;;8.30;99.90;;;;;;7131276;19;2956985;-78
2023/11/11 02:23:36;;;;;;;29.47;13.40;;;8.40;99.90;;;;;;7284452;19;20193;-78
2023/11/11 02:26:03;;;;;;;28.13;14.63;;;8.30;99.90;;;;;;7282163;19;20184;-78
2023/11/11 02:28:30;;;;;;;28.03;14.57;;;8.30;99.90;;;;;;7280804;19;20200;-78
2023/11/11 02:30:56;;;;;;;29.13;14.80;;;8.30;99.90;;;;;;7284375;19;20189;-78
2023/11/11 02:33:24;;;;;;;33.23;16.33;;;8.30;99.90;;;;;;7283237;19;20200;-78
2023/11/11 02:35:50;;;;;;;35.20;16.10;;;8.20;99.90;;;;;;7290064;19;20193;-77
2023/11/11 02:38:15;;;;;;;34.83;16.80;;;8.20;99.90;;;;;;7306825;19;20193;-78
2023/11/11 02:40:41;;;;;;;32.47;16.77;;;8.20;99.90;;;;;;7279397;19;20205;-78
2023/11/11 02:43:07;;;;;;;33.70;16.53;;;8.20;99.90;;;;;;7282318;19;20720;-77
2023/11/11 02:45:33;;;;;;;36.20;16.47;;;8.10;99.90;;;;;;7283041;19;20193;-78
2023/11/11 02:48:00;;;;;;;33.80;16.47;;;8.10;99.90;;;;;;7282637;19;20201;-78
2023/11/11 02:50:27;;;;;;;32.80;16.03;;;8.10;99.90;;;;;;7284481;19;20185;-77
2023/11/11 02:52:54;;;;;;;34.80;16.70;;;8.10;99.90;;;;;;7282108;19;20261;-78
2023/11/11 02:55:19;;;;;;;34.97;15.93;;;8.00;99.90;;;;;;7290711;19;20633;-78
2023/11/11 02:57:46;;;;;;;33.07;15.73;;;7.90;99.90;;;;;;7304603;19;20758;-78
2023/11/11 03:00:12;;;;;;;28.10;15.47;;;7.90;99.90;;;;;;7282813;19;20185;-78
2023/11/11 03:02:41;;;;;;;32.07;15.47;;;7.90;99.90;;;;;;7283123;19;20214;-78
2023/11/11 03:05:07;;;;;;;31.23;15.13;;;7.80;99.90;;;;;;7282445;19;20252;-79
2023/11/11 03:07:35;;;;;;;29.10;15.70;;;7.90;99.90;;;;;;7281119;19;20250;-78
2023/11/11 03:10:05;;;;;;;30.90;13.70;;;7.90;99.90;;;;;;7280875;19;20542;-78
2023/11/11 03:12:35;;;;;;;33.50;14.83;;;7.70;99.90;;;;;;7281613;19;20197;-78
2023/11/11 03:15:01;;;;;;;29.27;14.27;;;7.70;99.90;;;;;;7280945;19;20193;-78
2023/11/11 03:17:33;;;;;;;32.03;14.90;;;7.70;99.90;;;;;;7281246;19;20205;-78
2023/11/11 03:19:59;;;;;;;32.40;15.43;;;7.80;99.90;;;;;;7281025;19;20558;-78
2023/11/11 03:22:26;;;;;;;29.17;13.93;;;7.70;99.90;;;;;;7278324;19;20199;-78
2023/11/11 03:24:51;;;;;;;29.23;14.23;;;7.80;99.90;;;;;;7281738;19;20217;-77
2023/11/11 03:27:17;;;;;;;27.33;13.23;;;7.80;99.90;;;;;;7303021;19;20192;-78
2023/11/11 03:29:43;;;;;;;31.43;14.23;;;7.80;99.90;;;;;;7278512;19;20196;-78
2023/11/11 03:32:09;;;;;;;32.80;14.40;;;7.80;99.90;;;;;;7279466;19;20199;-78
2023/11/11 03:34:35;;;;;;;28.57;13.70;;;7.80;99.90;;;;;;7281701;19;20196;-78
2023/11/11 03:37:01;;;;;;;29.10;14.03;;;7.70;99.90;;;;;;7279848;19;20181;-78
2023/11/11 03:39:29;;;;;;;27.73;13.33;;;7.70;99.90;;;;;;7281982;19;20574;-78
2023/11/11 03:41:55;;;;;;;27.77;14.30;;;7.70;99.90;;;;;;7280803;19;20197;-78
2023/11/11 03:44:21;;;;;;;32.70;13.70;;;7.70;99.90;;;;;;7280465;19;20605;-78
2023/11/11 03:46:47;;;;;;;30.17;13.57;;;7.70;99.90;;;;;;7302112;19;20199;-78
2023/11/11 03:49:14;;;;;;;33.50;13.50;;;7.80;99.90;;;;;;7281614;19;20702;-78
2023/11/11 03:51:40;;;;;;;34.83;14.13;;;7.80;99.90;;;;;;7279731;19;20244;-78
2023/11/11 03:54:06;;;;;;;32.77;14.67;;;7.90;99.90;;;;;;7279495;19;20186;-78
2023/11/11 03:56:32;;;;;;;36.07;13.73;;;7.80;99.90;;;;;;7277660;19;20196;-78
2023/11/11 03:58:58;;;;;;;34.70;14.47;;;7.80;99.90;;;;;;7279589;19;20830;-78
2023/11/11 04:01:24;;;;;;;34.83;14.20;;;7.80;99.90;;;;;;7279596;19;20188;-78
2023/11/11 04:03:50;;;;;;;33.93;14.43;;;7.80;99.90;;;;;;7280280;19;20250;-78
2023/11/11 04:06:16;;;;;;;33.53;13.53;;;7.90;99.90;;;;;;7302076;19;20301;-78
2023/11/11 04:08:42;;;;;;;34.83;14.07;;;7.90;99.90;;;;;;7279587;19;20183;-76
2023/11/11 04:11:08;;;;;;;32.80;12.73;;;8.00;99.90;;;;;;7280208;19;20242;-78
2023/11/11 04:13:38;;;;;;;30.77;12.77;;;8.00;99.90;;;;;;7278365;19;20186;-78
2023/11/11 04:16:06;;;;;;;31.83;12.53;;;7.80;99.90;;;;;;7279398;19;20212;-78
2023/11/11 04:18:33;;;;;;;31.97;13.23;;;7.70;99.90;;;;;;7277607;19;20192;-78
2023/11/11 04:21:03;;;;;;;27.73;12.37;;;7.70;99.90;;;;;;7278764;19;20204;-78
2023/11/11 04:23:29;;;;;;;33.13;13.20;;;7.70;99.90;;;;;;7280416;19;20532;-78
2023/11/11 04:25:58;;;;;;;32.97;11.47;;;7.70;99.90;;;;;;7278493;19;20180;-78
2023/11/11 04:28:26;;;;;;;28.60;13.33;;;7.70;99.90;;;;;;7277609;19;20216;-78
2023/11/11 04:30:51;;;;;;;29.83;12.50;;;7.70;99.90;;;;;;7279188;19;20202;-78
2023/11/11 04:33:17;;;;;;;32.07;12.93;;;7.80;99.90;;;;;;7300821;19;20713;-77
2023/11/11 04:35:43;;;;;;;32.60;12.87;;;7.70;99.90;;;;;;7278961;19;20218;-78
2023/11/11 04:38:10;;;;;;;30.13;12.37;;;7.70;99.90;;;;;;7279465;19;20691;-78
2023/11/11 04:40:36;;;;;;;31.07;12.73;;;7.70;99.90;;;;;;7277759;19;20193;-78
2023/11/11 04:43:02;;;;;;;31.53;13.23;;;7.70;99.90;;;;;;7279690;19;20200;-78
2023/11/11 04:45:29;;;;;;;29.07;12.87;;;7.80;99.90;;;;;;7278112;19;20181;-78
2023/11/11 04:47:55;;;;;;;31.13;12.93;;;7.80;99.90;;;;;;7277988;19;20192;-78
2023/11/11 04:50:21;;;;;;;33.70;13.17;;;7.70;99.90;;;;;;7279814;19;20588;-77
2023/11/11 04:52:47;;;;;;;29.20;12.23;;;7.70;99.90;;;;;;7301502;19;20198;-77
2023/11/11 04:55:13;;;;;;;29.00;12.57;;;7.60;99.90;;;;;;7280588;19;20217;-78
2023/11/11 04:57:39;;;;;;;26.03;12.10;;;7.50;99.90;;;;;;7278194;19;20214;-78
2023/11/11 05:00:09;;;;;;;28.97;12.97;;;7.40;99.90;;;;;;7278237;19;20195;-78
2023/11/11 05:02:36;;;;;;;26.97;12.20;;;7.50;99.90;;;;;;7279498;19;20200;-77
2023/11/11 05:05:02;;;;;;;29.67;12.80;;;7.40;99.90;;;;;;7278772;19;20177;-78
2023/11/11 05:07:28;;;;;;;25.83;13.03;;;7.20;99.90;;;;;;7276932;19;20293;-78
2023/11/11 05:09:54;;;;;;;27.50;12.77;;;7.30;99.90;;;;;;7279883;19;20618;-78
2023/11/11 05:12:20;;;;;;;30.37;13.53;;;7.30;99.90;;;;;;7285871;19;20182;-77
2023/11/11 05:14:46;;;;;;;27.77;12.77;;;7.30;99.90;;;;;;7300129;19;20205;-78
2023/11/11 05:17:13;;;;;;;27.57;12.53;;;7.40;99.90;;;;;;7276864;19;20311;-77
2023/11/11 05:19:39;;;;;;;26.73;12.13;;;7.30;99.90;;;;;;7275559;19;20213;-78
2023/11/11 05:22:06;;;;;;;31.07;13.83;;;7.30;99.90;;;;;;7278338;19;20181;-78
2023/11/11 05:24:32;;;;;;;26.83;12.80;;;7.30;99.90;;;;;;7279165;19;20201;-78
2023/11/11 05:26:58;;;;;;;31.03;14.27;;;7.30;99.90;;;;;;7276857;19;20282;-78
2023/11/11 05:29:24;;;;;;;33.03;13.73;;;7.40;99.90;;;;;;7278809;19;20196;-78
2023/11/11 05:31:51;;;;;;;32.07;13.50;;;7.40;99.90;;;;;;7285551;19;20567;-77
2023/11/11 05:34:17;;;;;;;27.03;13.43;;;7.40;99.90;;;;;;7299287;19;20711;-78
2023/11/11 05:36:42;;;;;;;28.27;13.03;;;7.40;99.90;;;;;;7275607;19;20191;-78
2023/11/11 05:39:14;;;;;;;27.70;12.50;;;7.40;99.90;;;;;;7278677;19;20196;-78
2023/11/11 05:41:40;;;;;;;28.63;13.03;;;7.40;99.90;;;;;;7276597;19;20189;-78
2023/11/11 05:44:06;;;;;;;27.90;12.23;;;7.50;99.90;;;;;;7279807;19;20649;-78
2023/11/11 05:46:32;;;;;;;30.33;12.80;;;7.40;99.90;;;;;;7276350;19;20211;-78
2023/11/11 05:48:57;;;;;;;28.43;11.80;;;7.20;99.90;;;;;;7277214;19;20190;-78
2023/11/11 05:51:24;;;;;;;23.30;12.17;;;7.10;99.90;;;;;;7277788;19;20617;-78
2023/11/11 05:53:50;;;;;;;30.10;12.80;;;7.20;99.90;;;;;;7280212;19;20181;-78
2023/11/11 05:56:17;;;;;;;23.90;10.80;;;7.10;99.90;;;;;;7300536;19;20230;-78
2023/11/11 05:58:43;;;;;;;29.77;12.13;;;7.10;99.90;;;;;;7277327;19;20189;-78
2023/11/11 06:01:08;;;;;;;23.80;11.23;;;7.20;99.90;;;;;;7283877;19;20644;-78
2023/11/11 06:03:35;;;;;;;29.40;11.70;;;7.30;99.90;;;;;;7283304;19;20244;-78
2023/11/11 06:06:02;;;;;;;27.77;11.80;;;7.40;99.90;;;;;;7283337;19;20196;-78
2023/11/11 06:08:28;;;;;;;25.43;11.23;;;7.50;99.90;;;;;;7283832;19;20189;-78
2023/11/11 06:10:53;;;;;;;25.63;10.90;;;7.50;99.90;;;;;;7284593;19;20197;-78
2023/11/11 06:13:20;;;;;;;23.90;10.67;;;7.40;99.90;;;;;;7298355;19;20189;-77
2023/11/11 06:15:45;;;;;;;24.37;11.40;;;7.40;99.90;;;;;;7303767;19;20191;-78
2023/11/11 06:18:12;;;;;;;22.43;10.23;;;7.30;99.90;;;;;;7282557;19;20187;-78
2023/11/11 06:20:38;;;;;;;25.33;10.00;;;7.30;99.90;;;;;;7283902;19;20615;-78
2023/11/11 06:23:04;;;;;;;27.33;10.70;;;7.20;99.90;;;;;;7284501;19;20251;-77
2023/11/11 06:25:31;;;;;;;25.50;10.93;;;7.30;99.90;;;;;;7284320;19;20195;-77
2023/11/11 06:27:58;;;;;;;23.30;10.73;;;7.20;99.90;;;;;;7282647;19;20219;-77
2023/11/11 06:30:25;;;;;;;25.37;10.33;;;7.10;99.90;;;;;;7284052;19;20597;-77
2023/11/11 06:32:51;;;;;;;29.40;10.67;;;7.10;99.90;;;;;;7286534;19;20541;-78
2023/11/11 06:35:24;;;;;;;22.70;9.40;;;7.20;99.90;;;;;;7302949;19;20201;-77
2023/11/11 06:37:50;;;;;;;22.63;9.80;;;7.20;99.90;;;;;;7269717;19;20671;-77
2023/11/11 06:40:16;;;;;;;25.57;9.30;;;7.20;99.90;;;;;;7305678;19;20256;-77
2023/11/11 06:42:42;;;;;;;19.63;9.00;;;7.10;99.90;;;;;;7284608;19;20189;-77
2023/11/11 06:45:14;;;;;;;23.97;9.07;;;7.10;99.90;;;;;;7282848;19;20374;-78
2023/11/11 06:47:41;;;;;;;21.77;8.87;;;7.10;99.90;;;;;;7283109;19;20182;-78
2023/11/11 06:50:07;;;;;;;19.10;8.37;;;7.10;99.90;;;;;;7284346;19;20195;-77
2023/11/11 06:52:35;;;;;;;23.50;8.73;;;7.10;99.90;;;;;;7283479;19;20192;-78
2023/11/11 06:55:04;;;;;;;21.30;8.30;;;7.00;99.90;;;;;;7282466;19;20193;-78
2023/11/11 06:57:30;;;;;;;22.63;9.00;;;7.00;99.90;;;;;;7283472;19;20674;-78
2023/11/11 06:59:56;;;;;;;20.93;8.30;;;7.00;99.90;;;;;;7281715;19;20200;-78
2023/11/11 07:02:22;;;;;;;21.10;8.20;;;7.00;99.90;;;;;;7287122;19;20192;-78
2023/11/11 07:04:55;;;;;;;20.90;7.77;;;7.00;99.90;;;;;;7308289;19;20627;-79
2023/11/11 07:07:27;;;;;;;19.53;8.43;;;7.10;99.90;;;;;;7261574;19;20185;-79
2023/11/11 07:09:53;;;;;;;17.77;8.20;;;6.90;99.90;;;;;;7283760;19;20189;-78
2023/11/11 07:12:21;;;;;;;15.87;8.30;;;7.00;99.90;;;;;;7300813;19;20210;-78
2023/11/11 07:14:46;;;;;;;21.20;7.97;;;7.00;99.90;;;;;;7280084;19;20192;-79
2023/11/11 07:17:12;;;;;;;21.77;7.93;;;7.00;99.90;;;;;;7283677;19;20210;-78
2023/11/11 07:19:38;;;;;;;19.67;7.93;;;6.90;99.90;;;;;;7286040;19;20218;-78
2023/11/11 07:22:04;;;;;;;18.50;7.53;;;6.90;99.90;;;;;;7284016;19;20738;-78
2023/11/11 07:24:30;;;;;;;17.07;7.37;;;6.90;99.90;;;;;;7282742;19;20189;-78
2023/11/11 07:26:56;;;;;;;19.07;7.33;;;6.90;99.90;;;;;;7279578;19;20207;-78
2023/11/11 07:29:25;;;;;;;17.53;7.13;;;7.00;99.90;;;;;;7281642;19;20300;-77
2023/11/11 07:31:52;;;;;;;19.40;7.53;;;7.00;99.90;;;;;;7280879;19;20252;-77
2023/11/11 07:34:17;;;;;;;16.93;7.03;;;7.10;99.90;;;;;;7303515;19;20185;-78
2023/11/11 07:36:43;;;;;;;19.27;7.40;;;7.10;99.90;;;;;;7281279;19;20221;-78
2023/11/11 07:39:09;;;;;;;18.27;7.33;;;7.20;99.90;;;;;;7285442;19;20760;-77
2023/11/11 07:41:36;;;;;;;17.73;7.07;;;7.10;99.90;;;;;;7284108;19;20196;-78
2023/11/11 07:44:06;;;;;;;15.17;7.10;;;7.20;99.90;;;;;;7284708;19;20522;-78
2023/11/11 07:46:32;;;;;;;14.70;7.50;;;7.20;99.90;;;;;;7284721;19;20648;-78
2023/11/11 07:49:02;;;;;;;18.33;6.87;;;7.30;99.90;;;;;;7282968;19;20181;-77
2023/11/11 07:51:28;;;;;;;14.20;6.13;;;7.40;99.90;;;;;;7284142;19;20192;-78
2023/11/11 07:53:53;;;;;;;16.33;6.80;;;7.50;99.90;;;;;;7284533;19;20192;-77
2023/11/11 07:56:19;;;;;;;16.67;6.03;;;7.60;99.90;;;;;;7302702;19;20196;-77
2023/11/11 07:58:52;;;;;;;16.30;6.47;;;7.60;99.90;;;;;;7295701;19;20677;-78
2023/11/11 08:01:22;;;;;;;13.70;5.93;;;7.60;99.90;;;;;;7286910;19;20185;-77
2023/11/11 08:03:47;;;;;;;16.47;6.40;;;7.60;99.90;;;;;;7284256;19;20193;-78
2023/11/11 08:06:13;;;;;;;14.63;6.17;;;7.60;99.90;;;;;;7285259;19;20202;-78
2023/11/11 08:08:40;;;;;;;14.80;6.03;;;7.70;99.90;;;;;;7285343;19;20215;-78
2023/11/11 08:11:08;;;;;;;18.00;6.23;;;7.70;99.90;;;;;;7283905;19;20185;-78
2023/11/11 08:13:34;;;;;;;16.23;5.77;;;7.70;99.90;;;;;;7285450;19;20192;-77
2023/11/11 08:15:59;;;;;;;18.03;5.73;;;7.80;99.90;;;;;;7283974;19;20188;-77
2023/11/11 08:18:25;;;;;;;19.43;6.00;;;7.90;99.90;;;;;;7282828;19;20181;-77
2023/11/11 08:20:51;;;;;;;17.07;5.93;;;8.10;99.90;;;;;;7283669;19;20541;-78
2023/11/11 08:23:16;;;;;;;15.97;5.40;;;8.10;99.90;;;;;;7304524;19;20189;-78
2023/11/11 08:25:42;;;;;;;12.53;5.63;;;8.20;99.90;;;;;;7284007;19;20200;-80
2023/11/11 08:28:08;;;;;;;16.40;5.40;;;8.40;99.90;;;;;;7284666;19;20202;-79
2023/11/11 08:30:34;;;;;;;13.97;4.87;;;8.70;99.90;;;;;;7283468;19;20188;-79
2023/11/11 08:33:02;;;;;;;16.20;5.40;;;8.90;99.90;;;;;;7284807;19;20206;-79
2023/11/11 08:35:28;;;;;;;14.87;5.43;;;9.00;99.90;;;;;;7283730;19;20189;-79
2023/11/11 08:37:54;;;;;;;14.50;5.17;;;9.00;99.90;;;;;;7283664;19;20185;-80
2023/11/11 08:40:20;;;;;;;12.30;4.73;;;9.10;99.90;;;;;;7299157;19;20181;-79
2023/11/11 08:42:46;;;;;;;16.43;4.43;;;9.20;99.90;;;;;;7304144;19;20565;-79
2023/11/11 08:45:13;;;;;;;16.50;4.43;;;9.20;99.90;;;;;;7283031;19;20227;-80
2023/11/11 08:47:39;;;;;;;13.53;4.50;;;9.30;99.90;;;;;;7281099;19;20193;-80
2023/11/11 08:50:06;;;;;;;13.10;4.43;;;9.30;99.90;;;;;;7282077;19;20213;-79
2023/11/11 08:52:36;;;;;;;12.20;4.63;;;9.30;99.90;;;;;;7284111;19;20643;-79
2023/11/11 08:55:02;;;;;;;8.10;3.70;;;9.50;99.90;;;;;;7283499;19;20201;-79
2023/11/11 08:57:28;;;;;;;11.63;4.00;;;9.70;99.90;;;;;;7281261;19;20198;-79
2023/11/11 08:59:54;;;;;;;11.73;4.10;;;9.90;99.90;;;;;;7284066;19;20186;-79
2023/11/11 09:02:20;;;;;;;11.93;3.73;;;10.20;99.90;;;;;;7298753;19;20183;-79
2023/11/11 09:04:46;;;;;;;9.70;3.90;;;10.30;99.90;;;;;;7298740;19;20195;-80
2023/11/11 09:07:11;;;;;;;13.67;3.90;;;10.40;99.90;;;;;;7281951;19;20191;-79
2023/11/11 09:09:37;;;;;;;11.10;3.63;;;10.50;99.90;;;;;;7282690;19;20191;-80
2023/11/11 09:12:03;;;;;;;11.57;3.60;;;10.70;99.90;;;;;;7282613;19;20777;-79
2023/11/11 09:14:33;;;;;;;8.57;3.43;;;10.80;99.90;;;;;;7283993;19;20817;-79
2023/11/11 09:17:00;;;;;;;10.13;3.40;;;11.00;99.90;;;;;;7281617;19;20182;-78
2023/11/11 09:19:26;;;;;;;12.67;3.57;;;11.10;99.90;;;;;;7282814;19;20198;-78
2023/11/11 09:21:52;;;;;;;14.13;4.40;;;11.30;99.90;;;;;;7281685;19;20649;-78
2023/11/11 09:24:18;;;;;;;9.87;4.50;;;11.20;99.90;;;;;;7303799;19;20655;-78
2023/11/11 09:26:43;;;;;;;13.60;4.00;;;11.10;99.90;;;;;;7281343;19;20266;-78
2023/11/11 09:29:09;;;;;;;13.33;4.03;;;10.90;99.90;;;;;;7282742;19;20222;-78
2023/11/11 09:31:36;;;;;;;14.07;4.07;;;10.80;99.90;;;;;;7281179;19;20585;-78
2023/11/11 09:34:02;;;;;;;13.00;4.23;;;10.70;99.90;;;;;;7283591;19;20188;-78
2023/11/11 09:36:28;;;;;;;13.17;4.03;;;10.60;99.90;;;;;;7287163;19;20191;-79
2023/11/11 09:38:54;;;;;;;14.47;4.70;;;10.50;99.90;;;;;;7289166;19;20304;-77
2023/11/11 09:41:21;;;;;;;13.87;5.20;;;10.50;99.90;;;;;;7301395;19;20203;-77
2023/11/11 09:43:47;;;;;;;15.60;4.80;;;10.60;99.90;;;;;;7308473;19;20186;-78
2023/11/11 09:46:15;;;;;;;14.20;5.00;;;10.90;99.90;;;;;;7286560;19;20693;-78
2023/11/11 09:48:43;;;;;;;12.63;4.57;;;11.30;99.90;;;;;;7289333;19;20206;-79
2023/11/11 09:51:09;;;;;;;11.60;3.93;;;11.80;99.90;;;;;;7287348;19;20191;-79
2023/11/11 09:53:41;;;;;;;14.07;3.83;;;11.70;99.90;;;;;;7288348;19;20523;-81
2023/11/11 09:56:10;;;;;;;13.20;3.90;;;11.80;99.90;;;;;;7288551;19;20184;-80
2023/11/11 09:58:36;;;;;;;10.67;3.60;;;11.70;99.90;;;;;;7288549;19;20196;-80
2023/11/11 10:01:03;;;;;;;10.27;3.83;;;11.50;99.90;;;;;;7284819;19;20214;-79
2023/11/11 10:03:29;;;;;;;13.40;4.00;;;11.70;99.90;;;;;;7284267;19;20672;-80
2023/11/11 10:05:55;;;;;;;8.83;3.07;;;13.10;99.90;;;;;;7284806;19;20193;-81
2023/11/11 10:08:24;;;;;;;9.97;3.20;;;15.20;99.90;;;;;;7288850;19;20735;-80
2023/11/11 10:10:52;;;;;;;9.13;2.60;;;15.90;99.90;;;;;;7298031;19;20974;-80
2023/11/11 10:13:19;;;;;;;12.40;3.10;;;15.50;99.90;;;;;;7302306;19;20209;-82
2023/11/11 10:15:45;;;;;;;11.00;3.17;;;15.30;99.90;;;;;;7284664;19;20208;-81
2023/11/11 10:18:14;;;;;;;10.57;2.83;;;14.90;99.90;;;;;;7285397;19;20178;-81
2023/11/11 10:20:44;;;;;;;11.20;3.03;;;14.70;99.90;;;;;;7286388;19;20209;-81
2023/11/11 10:23:15;;;;;;;8.67;2.70;;;14.50;99.90;;;;;;7286093;19;20231;-82
2023/11/11 10:25:42;;;;;;;11.43;3.10;;;14.40;99.90;;;;;;7276691;19;20199;-80
2023/11/11 10:28:15;;;;;;;10.07;3.33;;;13.80;99.90;;;;;;7274323;19;20258;-81
2023/11/11 10:30:42;;;;;;;10.23;3.10;;;13.70;99.90;;;;;;7289217;19;20517;-82
2023/11/11 10:33:11;;;;;;;11.40;3.30;;;13.80;99.90;;;;;;7291967;19;20194;-79
2023/11/11 10:35:36;;;;;;;7.73;2.90;;;14.00;99.90;;;;;;7287524;19;20238;-80
2023/11/11 10:38:02;;;;;;;10.20;3.00;;;14.10;99.90;;;;;;7292191;19;20190;-81
2023/11/11 10:40:28;;;;;;;8.53;2.67;;;14.20;99.90;;;;;;7293521;19;20191;-80
2023/11/11 10:42:54;;;;;;;10.97;3.13;;;14.30;99.90;;;;;;7294154;19;20191;-79
2023/11/11 10:45:20;;;;;;;7.63;3.00;;;14.40;99.90;;;;;;7313042;19;20191;-78
2023/11/11 10:47:46;;;;;;;10.67;2.90;;;14.60;99.90;;;;;;7309909;19;20195;-79
2023/11/11 10:50:14;;;;;;;9.47;2.30;;;14.70;99.90;;;;;;7294199;19;20264;-78
2023/11/11 10:52:41;;;;;;;9.90;2.73;;;14.70;99.90;;;;;;7298146;19;21243;-79
2023/11/11 10:55:10;;;;;;;9.87;2.60;;;16.00;99.90;;;;;;7299590;19;20208;-81
2023/11/11 10:57:42;;;;;;;10.33;2.50;;;17.50;99.90;;;;;;7279558;19;20204;-79
2023/11/11 11:00:24;;;;;;;7.07;2.50;;;18.00;99.90;;;;;;7286849;19;20211;-80
2023/11/11 11:02:55;;;;;;;9.37;2.40;;;17.50;99.90;;;;;;7292570;19;20273;-77
2023/11/11 11:05:40;;;;;;;10.23;3.00;;;16.90;99.90;;;;;;7287069;19;20215;-78
2023/11/11 11:08:33;;;;;;;10.53;2.93;;;16.50;99.90;;;;;;7288075;19;20208;-79
2023/11/11 11:11:24;;;;;;;7.20;2.67;;;15.80;99.90;;;;;;7186158;19;2004688;-77
2023/11/11 11:13:53;;;;;;;9.90;2.10;;;15.50;99.90;;;;;;7286241;19;20192;-78
2023/11/11 11:16:28;;;;;;;9.30;2.70;;;15.50;99.90;;;;;;7291247;19;20192;-77
2023/11/11 11:18:57;;;;;;;9.27;2.73;;;15.50;99.90;;;;;;7263208;19;20753;-79
2023/11/11 11:21:25;;;;;;;9.30;2.57;;;15.20;99.90;;;;;;7282886;19;20196;-77
2023/11/11 11:23:51;;;;;;;8.87;2.67;;;15.00;99.90;;;;;;7305934;19;20189;-77
2023/11/11 11:26:28;;;;;;;12.33;2.17;;;14.90;99.90;;;;;;7285119;19;20208;-78
2023/11/11 11:29:13;;;;;;;6.47;2.20;;;15.40;99.90;;;;;;7260552;19;20223;-77
2023/11/11 11:32:04;;;;;;;10.40;1.97;;;16.10;99.90;;;;;;7278756;19;20201;-78
2023/11/11 11:34:30;;;;;;;7.73;2.30;;;17.00;99.90;;;;;;7177110;19;2004556;-77
2023/11/11 11:36:56;;;;;;;8.33;2.20;;;17.60;99.90;;;;;;7278046;19;20214;-78
2023/11/11 11:39:28;;;;;;;7.27;1.93;;;17.90;99.90;;;;;;7293277;19;20188;-77
2023/11/11 11:42:07;;;;;;;9.33;2.40;;;17.90;99.90;;;;;;7269704;19;20195;-77
2023/11/11 11:44:33;;;;;;;9.83;2.30;;;18.10;99.90;;;;;;7278581;19;20187;-77
2023/11/11 11:46:59;;;;;;;8.97;2.20;;;18.00;99.90;;;;;;7278533;19;20543;-78
2023/11/11 11:49:25;;;;;;;7.63;2.30;;;18.20;99.90;;;;;;7275624;19;20188;-78
2023/11/11 11:51:54;;;;;;;9.40;1.90;;;18.20;99.90;;;;;;7296194;19;20680;-76
2023/11/11 11:54:20;;;;;;;9.10;2.07;;;18.60;99.90;;;;;;7291038;19;20193;-76
2023/11/11 11:56:46;;;;;;;6.73;2.00;;;19.50;99.90;;;;;;7271025;19;20189;-77
2023/11/11 11:59:13;;;;;;;8.57;1.70;;;19.80;99.90;;;;;;7277432;19;21004;-78
2023/11/11 12:01:39;;;;;;;6.83;2.00;;;19.70;99.90;;;;;;7278389;19;20190;-77
2023/11/11 12:04:06;;;;;;;8.93;2.10;;;19.70;99.90;;;;;;7277106;19;20199;-78
2023/11/11 12:06:39;;;;;;;8.90;1.90;;;19.50;99.90;;;;;;7277485;19;20189;-78
2023/11/11 12:09:07;;;;;;;7.80;2.17;;;18.60;99.90;;;;;;7272418;19;20189;-77
2023/11/11 12:11:33;;;;;;;5.77;2.23;;;18.30;99.90;;;;;;7275997;19;20230;-77
2023/11/11 12:14:04;;;;;;;6.63;2.10;;;17.40;99.90;;;;;;7275203;19;20195;-77
2023/11/11 12:16:43;;;;;;;9.20;2.13;;;16.70;99.90;;;;;;7275515;19;20209;-77
2023/11/11 12:19:14;;;;;;;9.20;2.40;;;16.30;99.90;;;;;;7275580;19;20208;-77
2023/11/11 12:21:45;;;;;;;8.90;2.27;;;16.00;99.90;;;;;;7274842;19;20209;-77
2023/11/11 12:24:12;;;;;;;8.27;2.40;;;15.70;99.90;;;;;;7254515;19;20692;-77
2023/11/11 12:26:38;;;;;;;9.80;2.67;;;15.00;99.90;;;;;;7273444;19;20262;-77
2023/11/11 12:29:05;;;;;;;6.47;2.17;;;14.80;99.90;;;;;;7296269;19;20188;-77
2023/11/11 12:31:31;;;;;;;8.77;2.70;;;14.70;99.90;;;;;;7275210;19;20187;-77
2023/11/11 12:33:58;;;;;;;8.57;2.17;;;14.50;99.90;;;;;;7276537;19;20203;-80
2023/11/11 12:36:26;;;;;;;9.93;2.33;;;14.30;99.90;;;;;;7276681;19;20197;-78
2023/11/11 12:39:09;;;;;;;8.83;2.70;;;14.20;99.90;;;;;;7275305;19;20192;-77
2023/11/11 12:41:38;;;;;;;11.30;2.20;;;14.00;99.90;;;;;;7275808;19;20186;-77
2023/11/11 12:44:07;;;;;;;8.37;2.20;;;13.80;99.90;;;;;;7300612;19;20223;-77